ADDS METAR Data INFO
IDs: Format: Raw Decoded Include TAF

Data at: 0057 UTC 21 Oct 2017

KEDJ 210050Z AUTO 15006KT 10SM CLR 15/08 A3021 RMK AO1
KEDJ 210030Z AUTO 15006KT 10SM CLR 16/08 A3021 RMK AO1
KEDJ 210010Z AUTO 17005KT 10SM CLR 16/08 A3021 RMK AO1
KEDJ 202350Z AUTO 16005KT 10SM CLR 17/08 A3021 RMK AO1
KEDJ 202335Z AUTO 15006KT 10SM CLR 17/08 A3021 RMK AO1
KEDJ 202310Z AUTO 13005KT 10SM CLR 17/09 A3020 RMK AO1
KEDJ 202250Z AUTO 19003KT 10SM CLR 19/08 A3020 RMK AO1
KEDJ 202230Z AUTO 20004KT 10SM CLR 20/08 A3020 RMK AO1
KEDJ 202210Z AUTO 19005KT 10SM CLR 22/08 A3020 RMK AO1
KEDJ 202150Z AUTO 19005KT 10SM CLR 22/08 A3020 RMK AO1
KEDJ 202130Z AUTO 18007KT 10SM CLR 23/07 A3020 RMK AO1
KEDJ 202110Z AUTO 15007KT 10SM CLR 23/08 A3020 RMK AO1
KEDJ 202050Z AUTO 17007KT 5SM CLR 23/08 A3020 RMK AO1
KEDJ 202030Z AUTO 18006KT 10SM CLR 23/07 A3021 RMK AO1
KEDJ 202010Z AUTO 19007KT 10SM CLR 23/07 A3021 RMK AO1
KEDJ 201950Z AUTO 18006KT 8SM CLR 23/08 A3022 RMK AO1
KEDJ 201930Z AUTO 20006KT 10SM CLR 23/08 A3023 RMK AO1
KEDJ 201910Z AUTO 19006KT 10SM CLR 23/07 A3023 RMK AO1
KEDJ 201850Z AUTO 22005KT 10SM CLR 23/07 A3024 RMK AO1
KEDJ 201830Z AUTO 19005KT 10SM CLR 23/07 A3024 RMK AO1
KEDJ 201810Z AUTO 23006KT 10SM CLR 22/08 A3025 RMK AO1
KEDJ 201750Z AUTO 22006KT 10SM CLR 22/07 A3027 RMK AO1
KEDJ 201730Z AUTO 20005KT 10SM CLR 22/08 A3027 RMK AO1
KEDJ 201710Z AUTO 22004KT 10SM CLR 21/09 A3028 RMK AO1
KEDJ 201650Z AUTO 18004KT 10SM CLR 20/09 A3030 RMK AO1
KEDJ 201630Z AUTO 16005KT 10SM CLR 20/08 A3031 RMK AO1
KEDJ 201610Z AUTO 20005KT 10SM CLR 19/08 A3031 RMK AO1
KEDJ 201555Z AUTO 20006KT 10SM CLR 19/07 A3031 RMK AO1
KEDJ 201530Z AUTO 20006KT 10SM CLR 19/04 A3032 RMK AO1
KEDJ 201510Z AUTO 19007KT 10SM CLR 18/04 A3032 RMK AO1
KEDJ 201455Z AUTO 16004KT 10SM CLR 17/04 A3032 RMK AO1
KEDJ 201430Z AUTO 17005KT 10SM CLR 15/05 A3032 RMK AO1
KEDJ 201410Z AUTO 17005KT 10SM CLR 14/05 A3032 RMK AO1
KEDJ 201355Z AUTO 18004KT 10SM CLR 12/08 A3032 RMK AO1
KEDJ 201330Z AUTO 20004KT 10SM CLR 10/08 A3032 RMK AO1
KEDJ 201310Z AUTO 20003KT 9SM CLR 08/08 A3032 RMK AO1
KEDJ 201255Z AUTO 23003KT 8SM CLR 07/07 A3031 RMK AO1
KEDJ 201230Z AUTO 00000KT 8SM CLR 05/05 A3029 RMK AO1
KEDJ 201210Z AUTO 8SM CLR 05/05 A3029 RMK AO1
KEDJ 201150Z AUTO 00000KT 6SM CLR 05/05 A3029 RMK AO1
KEDJ 201130Z AUTO 00000KT 4SM CLR 05/05 A3029 RMK AO1
KEDJ 201110Z AUTO 00000KT 4SM CLR 05/05 A3028 RMK AO1
KEDJ 201050Z AUTO 19004KT 4SM CLR 05/05 A3028 RMK AO1
KEDJ 201030Z AUTO 00000KT 4SM CLR 06/06 A3027 RMK AO1
KEDJ 201010Z AUTO 00000KT 5SM CLR 06/06 A3027 RMK AO1
KEDJ 200950Z AUTO 4SM CLR 07/07 A3026 RMK AO1
KEDJ 200930Z AUTO 00000KT 5SM CLR 07/07 A3026 RMK AO1
KEDJ 200910Z AUTO 12003KT 5SM CLR 07/07 A3026 RMK AO1
KEDJ 200850Z AUTO 14003KT 5SM CLR 07/07 A3025 RMK AO1
KEDJ 200830Z AUTO 16003KT 8SM CLR 08/08 A3025 RMK AO1
KEDJ 200810Z AUTO 7SM CLR 07/07 A3025 RMK AO1
KEDJ 200750Z AUTO 17003KT 8SM CLR 07/07 A3025 RMK AO1
KEDJ 200730Z AUTO 00000KT 10SM CLR 07/07 A3024 RMK AO1
KEDJ 200710Z AUTO 10SM CLR 07/07 A3024 RMK AO1
KEDJ 200655Z AUTO 00000KT 10SM CLR 07/07 A3024 RMK AO1
KEDJ 200630Z AUTO 00000KT 10SM CLR 07/07 A3024 RMK AO1
KEDJ 200610Z AUTO 16003KT 10SM CLR 08/08 A3024 RMK AO1
KEDJ 200555Z AUTO 17004KT 10SM CLR 08/08 A3023 RMK AO1
KEDJ 200530Z AUTO 16003KT 10SM CLR 08/08 A3023 RMK AO1
KEDJ 200510Z AUTO 17003KT 10SM CLR 08/08 A3023 RMK AO1
KEDJ 200450Z AUTO 17003KT 10SM CLR 08/08 A3023 RMK AO1
KEDJ 200430Z AUTO 00000KT 10SM CLR 09/09 A3023 RMK AO1
KEDJ 200410Z AUTO 17003KT 10SM CLR 09/09 A3023 RMK AO1
KEDJ 200355Z AUTO 18003KT 10SM CLR 09/09 A3023 RMK AO1
KEDJ 200330Z AUTO 17003KT 10SM CLR 09/09 A3022 RMK AO1
KEDJ 200310Z AUTO 17003KT 10SM CLR 10/09 A3022 RMK AO1
KEDJ 200255Z AUTO 16003KT 10SM CLR 10/09 A3022 RMK AO1
KEDJ 200230Z AUTO 10SM CLR 10/09 A3022 RMK AO1
KEDJ 200210Z AUTO 20003KT 9SM CLR 12/09 A3021 RMK AO1
KEDJ 200150Z AUTO 21003KT 10SM CLR 12/09 A3021 RMK AO1
KEDJ 200130Z AUTO 00000KT 10SM CLR 13/09 A3020 RMK AO1
KEDJ 200110Z AUTO 00000KT 10SM CLR 13/09 A3021 RMK AO1
KEDJ 200050Z AUTO 00000KT 10SM CLR 15/09 A3021 RMK AO1
KEDJ 200030Z AUTO 00000KT 10SM CLR 15/09 A3020 RMK AO1
KEDJ 200010Z AUTO 23003KT 10SM CLR 15/08 A3020 RMK AO1
KEDJ 192350Z AUTO 00000KT 10SM CLR 16/08 A3020 RMK AO1
KEDJ 192330Z AUTO 27004KT 10SM CLR 17/08 A3019 RMK AO1
KEDJ 192310Z AUTO 27004KT 10SM CLR 17/09 A3019 RMK AO1
KEDJ 192250Z AUTO 26005KT 10SM CLR 18/09 A3018 RMK AO1
KEDJ 192230Z AUTO 27004KT 10SM CLR 18/09 A3018 RMK AO1
KEDJ 192210Z AUTO 26008KT 10SM CLR 20/09 A3018 RMK AO1
KEDJ 192150Z AUTO 26008KT 10SM CLR 20/08 A3017 RMK AO1
KEDJ 192130Z AUTO 26009KT 10SM CLR 21/09 A3017 RMK AO1
KEDJ 192110Z AUTO 27011KT 10SM CLR 22/08 A3017 RMK AO1
KEDJ 192050Z AUTO 27014KT 10SM CLR 22/08 A3017 RMK AO1
KEDJ 192030Z AUTO 26012G17KT 10SM CLR 22/08 A3017 RMK AO1
KEDJ 192015Z AUTO 25011G15KT 10SM CLR 22/08 A3017 RMK AO1
KEDJ 191950Z AUTO 25008KT 10SM CLR 22/08 A3017 RMK AO1
KEDJ 191930Z AUTO 24010KT 10SM CLR 22/08 A3017 RMK AO1
KEDJ 191915Z AUTO 24010KT 10SM CLR 22/08 A3017 RMK AO1
KEDJ 191850Z AUTO 26008G14KT 10SM CLR 21/09 A3017 RMK AO1
KEDJ 191830Z AUTO 26007G14KT 10SM CLR 21/09 A3018 RMK AO1
KEDJ 191755Z AUTO 27007KT 10SM CLR 20/09 A3019 RMK AO1
KEDJ 191730Z AUTO 24008KT 10SM CLR 20/09 A3020 RMK AO1
KEDJ 191715Z AUTO 25010G14KT 10SM CLR 20/09 A3020 RMK AO1
KEDJ 191650Z AUTO 25007KT 10SM CLR 19/09 A3019 RMK AO1
KEDJ 191630Z AUTO 25007KT 10SM CLR 18/09 A3020 RMK AO1
KEDJ 191615Z AUTO 23008KT 10SM CLR 18/09 A3021 RMK AO1
KEDJ 191550Z AUTO 27011KT 10SM CLR 17/09 A3021 RMK AO1
KEDJ 191530Z AUTO 25010KT 10SM CLR 17/08 A3021 RMK AO1
KEDJ 191515Z AUTO 25011KT 10SM CLR 17/08 A3020 RMK AO1
KEDJ 191450Z AUTO 25011G15KT 10SM CLR 16/08 A3020 RMK AO1
KEDJ 191430Z AUTO 24010KT 10SM CLR 15/08 A3020 RMK AO1
KEDJ 191415Z AUTO 24009G16KT 10SM CLR 14/08 A3021 RMK AO1
KEDJ 191350Z AUTO 24008KT 10SM CLR 14/07 A3021 RMK AO1
KEDJ 191335Z AUTO 23010G15KT 10SM CLR 13/07 A3021 RMK AO1
KEDJ 191310Z AUTO 23011KT 10SM CLR 12/07 A3020 RMK AO1